Huvudsida
METAR-TAF:

METAR-TAF

Flygplatser :

Kuala Terengganu, Malaysia

latitud: 05-22-53N, longitud: 103-06-17E, höjd: 6 m

Aktuellt väderrapport

Denna rapport gjordes för 48 minuter sedan, klockan 07:00 UTC
Vind 5 kt varierande vindriktning
Temperatur 32°C
Fuktighet 71%
Tryck 1008 hPa
Sikt 10 km eller mer
Spridda moln på en höjd av 1800 ft
Spridda moln på en höjd av 15000 ft
Brutna moln på en höjd av 30000 ft

METAR: WMKN 250700Z VRB05KT 9999 SCT018 SCT150 BKN300 32/26 Q1008

Tid: 15:48 (07:48 UTC)

Väderprognos

Denna rapport gjordes för 2 timmar och 48 minuter sedan, klockan 05:00 UTC
Prognos gäller från 25 kl. 06 UTC till 26 kl. 06 UTC
Vind 5 kt från syd
Sikt 10 km eller mer
Få moln på en höjd av 1800 ft
Brutna moln på en höjd av 30000 ft
Blir
från 25 kl. 14 UTC till 25 kl. 16 UTC
Vind 5 kt från sydväst

TAF: WMKN 250500Z 2506/2606 18005KT 9999 FEW018 BKN300 BECMG 2514/2516 23005KT

Aktuella väderrapporter och prognoser från 4000 flygplatser (METAR- och TAF-rapporter).

De tillgängliga stationerna syns som gula och röda prickar på kartan.

För musen över prickarna för att se namnen på stationerna.

Klicka sedan för att få väderrapporter och prognoser.

För att ändra kartan: Klicka på de gröna knapparna med ett svart kors på för att zooma in; den gröna knappen med ett streck på för att zooma ut; eller på de gröna pilarna för angränsande kartor.


METAR-TAF: